createdAt,value
2024-01-11T00:00:46.473Z,-8.35
2024-01-11T00:03:52.927Z,-8.39
2024-01-11T00:06:59.319Z,-8.45
2024-01-11T00:10:06.740Z,-8.52
2024-01-11T00:13:13.106Z,-8.57
2024-01-11T00:16:19.536Z,-8.69
2024-01-11T00:19:25.959Z,-8.80
2024-01-11T00:22:33.276Z,-8.91
2024-01-11T00:25:39.885Z,-9.05
2024-01-11T00:28:46.222Z,-9.18
2024-01-11T00:31:52.558Z,-9.24
2024-01-11T00:34:59.315Z,-9.28
2024-01-11T00:38:05.945Z,-9.30
2024-01-11T00:41:12.361Z,-9.32
2024-01-11T00:44:18.926Z,-9.35
2024-01-11T00:47:25.391Z,-9.37
2024-01-11T00:50:31.938Z,-9.39
2024-01-11T00:53:38.394Z,-9.41
2024-01-11T00:56:44.764Z,-9.44
2024-01-11T00:59:51.227Z,-9.49
2024-01-11T01:02:58.007Z,-9.51
2024-01-11T01:06:05.042Z,-9.56
2024-01-11T01:09:11.476Z,-9.58
2024-01-11T01:12:17.965Z,-9.60
2024-01-11T01:15:24.324Z,-9.66
2024-01-11T01:18:30.931Z,-9.71
2024-01-11T01:21:37.381Z,-9.74
2024-01-11T01:24:43.994Z,-9.73
2024-01-11T01:27:50.664Z,-9.72
2024-01-11T01:30:57.117Z,-9.71
2024-01-11T01:34:03.685Z,-9.72
2024-01-11T01:37:10.105Z,-9.72
2024-01-11T01:40:17.094Z,-9.74
2024-01-11T01:43:23.393Z,-9.82
2024-01-11T01:46:30.677Z,-9.86
2024-01-11T01:49:38.364Z,-9.87
2024-01-11T01:52:46.772Z,-9.88
2024-01-11T01:55:54.845Z,-9.91
2024-01-11T01:59:03.587Z,-9.92
2024-01-11T02:02:10.731Z,-9.91
2024-01-11T02:05:19.312Z,-9.88
2024-01-11T02:08:28.078Z,-9.89
2024-01-11T02:11:35.120Z,-9.92
2024-01-11T02:14:41.856Z,-9.92
2024-01-11T02:17:48.541Z,-9.90
2024-01-11T02:20:55.219Z,-9.91
2024-01-11T02:24:12.383Z,-9.93
2024-01-11T02:27:18.725Z,-10.00
2024-01-11T02:30:25.171Z,-10.06
2024-01-11T02:33:31.822Z,-10.09
2024-01-11T02:36:38.314Z,-10.11
2024-01-11T02:39:44.839Z,-10.10
2024-01-11T02:42:51.226Z,-10.10
2024-01-11T02:46:00.976Z,-10.10
2024-01-11T02:49:07.475Z,-10.11
2024-01-11T02:52:14.098Z,-10.14
2024-01-11T02:55:20.439Z,-10.14
2024-01-11T02:58:26.762Z,-10.15
2024-01-11T03:01:33.852Z,-10.17
2024-01-11T03:04:40.340Z,-10.18
2024-01-11T03:07:46.765Z,-10.14
2024-01-11T03:10:53.084Z,-10.15
2024-01-11T03:13:59.535Z,-10.16
2024-01-11T03:17:06.314Z,-10.20
2024-01-11T03:20:13.861Z,-10.21
2024-01-11T03:23:21.022Z,-10.21
2024-01-11T03:26:27.470Z,-10.19
2024-01-11T03:29:33.905Z,-10.14
2024-01-11T03:32:41.398Z,-10.12
2024-01-11T03:35:48.085Z,-10.14
2024-01-11T03:38:54.581Z,-10.18
2024-01-11T03:42:00.963Z,-10.22
2024-01-11T03:45:08.890Z,-10.25
2024-01-11T03:48:15.421Z,-10.27
2024-01-11T03:51:21.830Z,-10.32
2024-01-11T03:54:28.187Z,-10.37
2024-01-11T03:57:34.546Z,-10.42
2024-01-11T04:00:40.974Z,-10.42
2024-01-11T04:03:47.374Z,-10.44
2024-01-11T04:06:54.027Z,-10.56
2024-01-11T04:10:00.345Z,-10.61
2024-01-11T04:13:09.073Z,-10.65
2024-01-11T04:16:15.477Z,-10.68
2024-01-11T04:19:23.858Z,-10.71
2024-01-11T04:22:32.098Z,-10.77
2024-01-11T04:25:39.529Z,-10.76
2024-01-11T04:28:45.953Z,-10.74
2024-01-11T04:31:52.393Z,-10.71
2024-01-11T04:34:58.929Z,-10.67
2024-01-11T04:38:05.791Z,-10.63
2024-01-11T04:41:14.039Z,-10.60
2024-01-11T04:44:20.510Z,-10.61
2024-01-11T04:47:27.035Z,-10.60
2024-01-11T04:50:33.476Z,-10.56
2024-01-11T04:53:42.565Z,-10.50
2024-01-11T04:56:49.121Z,-10.46
2024-01-11T04:59:55.615Z,-10.48
2024-01-11T05:03:02.168Z,-10.53
2024-01-11T05:06:09.192Z,-10.56
2024-01-11T05:09:16.730Z,-10.57
2024-01-11T05:12:23.115Z,-10.58
2024-01-11T05:15:29.454Z,-10.64
2024-01-11T05:18:35.860Z,-10.72
2024-01-11T05:21:42.471Z,-10.72
2024-01-11T05:24:48.803Z,-10.66
2024-01-11T05:27:55.161Z,-10.61
2024-01-11T05:31:01.605Z,-10.56
2024-01-11T05:34:08.267Z,-10.55
2024-01-11T05:37:14.770Z,-10.57
2024-01-11T05:40:21.463Z,-10.59
2024-01-11T05:43:27.844Z,-10.58
2024-01-11T05:46:34.351Z,-10.56
2024-01-11T05:49:40.737Z,-10.53
2024-01-11T05:52:47.182Z,-10.53
2024-01-11T05:55:55.282Z,-10.62
2024-01-11T05:59:02.013Z,-10.67
2024-01-11T06:02:08.711Z,-10.67
2024-01-11T06:05:15.164Z,-10.65
2024-01-11T06:08:21.640Z,-10.60
2024-01-11T06:11:27.991Z,-10.55
2024-01-11T06:14:34.431Z,-10.57
2024-01-11T06:17:41.035Z,-10.61
2024-01-11T06:20:48.109Z,-10.62
2024-01-11T06:23:54.721Z,-10.57
2024-01-11T06:27:01.114Z,-10.50
2024-01-11T06:30:09.604Z,-10.42
2024-01-11T06:33:16.533Z,-10.36
2024-01-11T06:36:23.514Z,-10.30
2024-01-11T06:39:30.801Z,-10.28
2024-01-11T06:42:37.347Z,-10.27
2024-01-11T06:45:45.162Z,-10.24
2024-01-11T06:48:51.749Z,-10.24
2024-01-11T06:51:58.222Z,-10.27
2024-01-11T06:55:04.600Z,-10.29
2024-01-11T06:58:11.001Z,-10.32
2024-01-11T07:01:17.368Z,-10.32
2024-01-11T07:04:23.722Z,-10.32
2024-01-11T07:07:30.106Z,-10.34
2024-01-11T07:10:36.681Z,-10.37
2024-01-11T07:13:43.796Z,-10.41
2024-01-11T07:16:50.911Z,-10.44
2024-01-11T07:19:57.354Z,-10.48
2024-01-11T07:23:04.006Z,-10.47
2024-01-11T07:26:10.376Z,-10.41
2024-01-11T07:29:16.749Z,-10.37
2024-01-11T07:32:23.221Z,-10.37
2024-01-11T07:35:29.731Z,-10.34
2024-01-11T07:38:36.033Z,-10.28
2024-01-11T07:41:43.168Z,-10.24
2024-01-11T07:44:49.708Z,-10.18
2024-01-11T07:47:56.294Z,-10.09
2024-01-11T07:51:03.816Z,-10.00
2024-01-11T07:54:10.205Z,-9.91
2024-01-11T07:57:16.951Z,-9.79
2024-01-11T08:00:24.550Z,-9.64
2024-01-11T08:03:31.148Z,-9.52
2024-01-11T08:06:37.748Z,-9.40
2024-01-11T08:09:46.830Z,-9.37
2024-01-11T08:12:53.642Z,-9.28
2024-01-11T08:16:00.011Z,-9.15
2024-01-11T08:19:06.818Z,-8.93
2024-01-11T08:22:13.857Z,-8.66
2024-01-11T08:25:20.334Z,-8.33
2024-01-11T08:28:26.689Z,-8.00
2024-01-11T08:31:34.415Z,-7.65
2024-01-11T08:34:41.704Z,-7.28
2024-01-11T08:37:48.175Z,-6.96
2024-01-11T08:40:54.548Z,-6.69
2024-01-11T08:44:00.967Z,-6.41
2024-01-11T08:47:07.670Z,-6.15
2024-01-11T08:50:18.556Z,-6.01
2024-01-11T08:53:26.404Z,-5.88
2024-01-11T08:56:32.805Z,-5.71
2024-01-11T08:59:39.329Z,-5.55
2024-01-11T09:02:45.715Z,-5.31
2024-01-11T09:05:52.191Z,-5.05
2024-01-11T09:08:58.676Z,-4.78
2024-01-11T09:12:06.011Z,-4.51
2024-01-11T09:15:12.937Z,-4.22
2024-01-11T09:18:19.483Z,-3.91
2024-01-11T09:21:26.983Z,-3.56
2024-01-11T09:24:37.010Z,-3.20
2024-01-11T09:27:44.882Z,-2.83
2024-01-11T09:30:51.362Z,-2.48
2024-01-11T09:33:58.472Z,-2.10
2024-01-11T09:37:05.077Z,-1.69
2024-01-11T09:40:13.449Z,-1.29
2024-01-11T09:43:19.988Z,-0.87
2024-01-11T09:46:28.160Z,-0.45
2024-01-11T09:49:35.794Z,-0.03
2024-01-11T09:52:44.128Z,0.35
2024-01-11T09:55:51.127Z,0.71
2024-01-11T09:58:57.613Z,1.07
2024-01-11T10:02:09.397Z,1.39
2024-01-11T10:05:16.336Z,1.62
2024-01-11T10:08:24.256Z,1.84
2024-01-11T10:11:30.738Z,2.05
2024-01-11T10:14:37.336Z,2.24
2024-01-11T10:17:47.519Z,2.44
2024-01-11T10:20:54.199Z,2.64
2024-01-11T10:24:05.670Z,2.83
2024-01-11T10:27:12.698Z,3.09
2024-01-11T10:30:21.515Z,3.33
2024-01-11T10:33:28.028Z,3.50
2024-01-11T10:36:36.904Z,3.65
2024-01-11T10:39:44.446Z,3.74
2024-01-11T10:42:54.601Z,3.68
2024-01-11T10:46:05.529Z,3.62
2024-01-11T10:49:14.182Z,3.61
2024-01-11T10:52:30.196Z,3.63
2024-01-11T10:55:38.710Z,3.66
2024-01-11T10:58:47.761Z,3.72
2024-01-11T11:01:57.371Z,3.79
2024-01-11T11:05:05.765Z,3.85
2024-01-11T11:08:14.930Z,3.93
2024-01-11T11:11:21.786Z,3.94
2024-01-11T11:14:30.459Z,3.99
2024-01-11T11:17:37.846Z,4.08
2024-01-11T11:20:44.540Z,4.18
2024-01-11T11:23:51.566Z,4.21
2024-01-11T11:26:58.638Z,4.25
2024-01-11T11:30:05.402Z,4.29
2024-01-11T11:33:20.133Z,4.35
2024-01-11T11:36:32.667Z,4.40
2024-01-11T11:39:39.199Z,4.43
2024-01-11T11:42:46.238Z,4.49
2024-01-11T11:45:54.384Z,4.53
2024-01-11T11:49:01.382Z,4.53
2024-01-11T11:52:08.089Z,4.49
2024-01-11T11:55:16.482Z,4.49
2024-01-11T11:58:23.050Z,4.49
2024-01-11T12:01:29.465Z,4.47
2024-01-11T12:04:36.041Z,4.44
2024-01-11T12:07:42.529Z,4.41
2024-01-11T12:10:48.947Z,4.38
2024-01-11T12:13:58.927Z,4.40
2024-01-11T12:17:06.383Z,4.46
2024-01-11T12:20:15.742Z,4.50
2024-01-11T12:23:22.330Z,4.53
2024-01-11T12:26:28.962Z,4.54
2024-01-11T12:29:43.819Z,4.56
2024-01-11T12:32:56.134Z,4.59
2024-01-11T12:36:02.565Z,4.62
2024-01-11T12:39:07.655Z,4.62
2024-01-11T12:42:15.301Z,4.60
2024-01-11T12:45:21.978Z,4.60
2024-01-11T12:48:28.597Z,4.60
2024-01-11T12:51:38.205Z,4.61
2024-01-11T12:54:45.637Z,4.61
2024-01-11T12:57:52.093Z,4.61
2024-01-11T13:00:58.919Z,4.62
2024-01-11T13:04:05.483Z,4.60
2024-01-11T13:07:13.561Z,4.63
2024-01-11T13:10:20.103Z,4.62
2024-01-11T13:13:27.545Z,4.63
2024-01-11T13:16:34.448Z,4.65
2024-01-11T13:19:40.964Z,4.67
2024-01-11T13:22:47.552Z,4.67
2024-01-11T13:25:54.397Z,4.72
2024-01-11T13:29:00.867Z,4.77
2024-01-11T13:32:08.000Z,4.79
2024-01-11T13:35:15.243Z,4.83
2024-01-11T13:38:25.139Z,4.87
2024-01-11T13:41:32.092Z,4.93
2024-01-11T13:44:38.672Z,5.01
2024-01-11T13:47:45.400Z,5.07
2024-01-11T13:50:51.923Z,5.08
2024-01-11T13:53:59.030Z,5.13
2024-01-11T13:57:05.759Z,5.12
2024-01-11T14:00:14.810Z,5.06
2024-01-11T14:03:21.604Z,5.02
2024-01-11T14:06:28.297Z,4.95
2024-01-11T14:09:34.774Z,4.84
2024-01-11T14:12:41.648Z,4.76
2024-01-11T14:15:49.409Z,4.68
2024-01-11T14:18:56.083Z,4.60
2024-01-11T14:22:02.491Z,4.52
2024-01-11T14:25:12.286Z,4.46
2024-01-11T14:28:19.277Z,4.41
2024-01-11T14:31:25.752Z,4.36
2024-01-11T14:34:32.374Z,4.32
2024-01-11T14:37:40.838Z,4.29
2024-01-11T14:40:47.622Z,4.24
2024-01-11T14:43:55.984Z,4.13
2024-01-11T14:47:02.683Z,4.03
2024-01-11T14:50:12.574Z,3.97
2024-01-11T14:53:19.742Z,3.94
2024-01-11T14:56:26.319Z,3.92
2024-01-11T14:59:33.290Z,3.89
2024-01-11T15:02:39.826Z,3.81
2024-01-11T15:05:46.583Z,3.71
2024-01-11T15:08:53.627Z,3.63
2024-01-11T15:12:01.408Z,3.54
2024-01-11T15:15:10.640Z,3.50
2024-01-11T15:18:17.139Z,3.37
2024-01-11T15:21:23.771Z,3.29
2024-01-11T15:24:31.072Z,3.28
2024-01-11T15:27:38.048Z,3.18
2024-01-11T15:30:44.795Z,3.14
2024-01-11T15:33:51.518Z,3.03
2024-01-11T15:36:58.300Z,2.93
2024-01-11T15:40:05.254Z,2.87
2024-01-11T15:43:11.613Z,2.83
2024-01-11T15:46:16.286Z,2.77
2024-01-11T15:49:22.737Z,2.69
2024-01-11T15:52:29.105Z,2.65
2024-01-11T15:55:35.521Z,2.56
2024-01-11T15:58:41.933Z,2.53
2024-01-11T16:01:56.647Z,2.53
2024-01-11T16:05:12.298Z,2.53
2024-01-11T16:08:18.882Z,2.55
2024-01-11T16:11:26.193Z,2.57
2024-01-11T16:14:32.725Z,2.58
2024-01-11T16:17:39.624Z,2.61
2024-01-11T16:20:46.304Z,2.64
2024-01-11T16:23:53.486Z,2.64
2024-01-11T16:27:00.620Z,2.64
2024-01-11T16:30:08.918Z,2.63
2024-01-11T16:33:15.776Z,2.63
2024-01-11T16:36:22.287Z,2.63
2024-01-11T16:39:28.630Z,2.62
2024-01-11T16:42:33.866Z,2.59
2024-01-11T16:45:41.610Z,2.55
2024-01-11T16:48:48.469Z,2.56
2024-01-11T16:51:54.893Z,2.58
2024-01-11T16:55:01.364Z,2.59
2024-01-11T16:58:07.989Z,2.59
2024-01-11T17:01:14.826Z,2.57
2024-01-11T17:04:21.314Z,2.54
2024-01-11T17:07:27.769Z,2.50
2024-01-11T17:10:34.728Z,2.43
2024-01-11T17:13:41.119Z,2.37
2024-01-11T17:16:47.401Z,2.33
2024-01-11T17:19:51.919Z,2.30
2024-01-11T17:22:58.523Z,2.25
2024-01-11T17:26:07.271Z,2.26
2024-01-11T17:29:13.766Z,2.27
2024-01-11T17:32:20.749Z,2.26
2024-01-11T17:35:27.348Z,2.23
2024-01-11T17:38:33.843Z,2.25
2024-01-11T17:41:44.261Z,2.22
2024-01-11T17:44:50.983Z,2.23
2024-01-11T17:47:58.314Z,2.23
2024-01-11T17:51:05.476Z,2.22
2024-01-11T17:54:11.980Z,2.17
2024-01-11T17:57:18.460Z,2.17
2024-01-11T18:00:26.195Z,2.16
2024-01-11T18:03:32.584Z,2.16
2024-01-11T18:06:39.944Z,2.14
2024-01-11T18:09:46.518Z,2.10
2024-01-11T18:12:52.902Z,2.10
2024-01-11T18:15:59.350Z,2.10
2024-01-11T18:19:06.715Z,2.12
2024-01-11T18:22:13.169Z,2.11
2024-01-11T18:25:19.878Z,2.14
2024-01-11T18:28:26.411Z,2.17
2024-01-11T18:31:33.096Z,2.21
2024-01-11T18:34:39.436Z,2.23
2024-01-11T18:37:45.918Z,2.21
2024-01-11T18:40:52.446Z,2.19
2024-01-11T18:43:58.675Z,2.21
2024-01-11T18:47:03.350Z,2.21
2024-01-11T18:50:11.614Z,2.21
2024-01-11T18:53:18.754Z,2.23
2024-01-11T18:56:25.269Z,2.17
2024-01-11T18:59:31.691Z,2.15
2024-01-11T19:02:38.354Z,2.17
2024-01-11T19:05:45.283Z,2.21
2024-01-11T19:08:51.966Z,2.22
2024-01-11T19:11:59.768Z,2.22
2024-01-11T19:15:07.201Z,2.24
2024-01-11T19:18:14.655Z,2.26
2024-01-11T19:21:38.116Z,2.27
2024-01-11T19:24:44.386Z,2.29
2024-01-11T19:27:49.892Z,2.25
2024-01-11T19:30:57.216Z,2.20
2024-01-11T19:34:03.650Z,2.24
2024-01-11T19:37:11.618Z,2.25
2024-01-11T19:40:19.122Z,2.26
2024-01-11T19:43:25.533Z,2.27
2024-01-11T19:46:33.889Z,2.28
2024-01-11T19:49:40.334Z,2.30
2024-01-11T19:52:46.759Z,2.28
2024-01-11T19:55:58.112Z,2.23
2024-01-11T19:59:02.711Z,2.22
2024-01-11T20:02:09.398Z,2.19
2024-01-11T20:05:16.032Z,2.21
2024-01-11T20:08:25.890Z,2.21
2024-01-11T20:11:32.534Z,2.23
2024-01-11T20:14:40.903Z,2.23
2024-01-11T20:17:47.493Z,2.21
2024-01-11T20:20:54.358Z,2.21
2024-01-11T20:24:00.813Z,2.25
2024-01-11T20:27:07.722Z,2.29
2024-01-11T20:30:15.095Z,2.33
2024-01-11T20:33:21.679Z,2.34
2024-01-11T20:36:28.302Z,2.33
2024-01-11T20:39:34.671Z,2.32
2024-01-11T20:42:41.079Z,2.30
2024-01-11T20:45:47.731Z,2.29
2024-01-11T20:48:54.381Z,2.30
2024-01-11T20:52:02.050Z,2.28
2024-01-11T20:55:09.617Z,2.26
2024-01-11T20:58:16.016Z,2.28
2024-01-11T21:01:22.554Z,2.28
2024-01-11T21:04:28.850Z,2.28
2024-01-11T21:07:33.440Z,2.29
2024-01-11T21:10:39.816Z,2.23
2024-01-11T21:13:46.132Z,2.20
2024-01-11T21:16:50.747Z,2.20
2024-01-11T21:19:57.165Z,2.17
2024-01-11T21:23:38.026Z,2.19
2024-01-11T21:26:45.460Z,2.15
2024-01-11T21:29:51.861Z,2.15
2024-01-11T21:32:58.447Z,2.12
2024-01-11T21:36:05.281Z,2.12
2024-01-11T21:39:11.672Z,2.12
2024-01-11T21:42:18.053Z,2.12
2024-01-11T21:45:25.921Z,2.12
2024-01-11T21:48:32.610Z,2.09
2024-01-11T21:51:39.254Z,2.11
2024-01-11T21:54:45.621Z,2.10
2024-01-11T21:57:51.997Z,2.08
2024-01-11T22:00:58.970Z,2.10
2024-01-11T22:04:07.181Z,2.12
2024-01-11T22:07:13.791Z,2.14
2024-01-11T22:10:20.663Z,2.11
2024-01-11T22:13:27.242Z,2.13
2024-01-11T22:16:34.977Z,2.17
2024-01-11T22:19:42.903Z,2.20
2024-01-11T22:22:49.406Z,2.20
2024-01-11T22:25:55.695Z,2.21
2024-01-11T22:29:00.763Z,2.23
2024-01-11T22:32:08.014Z,2.22
2024-01-11T22:35:14.585Z,2.24
2024-01-11T22:38:20.968Z,2.22
2024-01-11T22:41:27.294Z,2.23
2024-01-11T22:44:36.474Z,2.24
2024-01-11T22:47:43.468Z,2.22
2024-01-11T22:50:49.916Z,2.21
2024-01-11T22:53:56.371Z,2.20
2024-01-11T22:57:02.742Z,2.20
2024-01-11T23:00:24.299Z,2.17
2024-01-11T23:03:30.792Z,2.18
2024-01-11T23:06:37.917Z,2.21
2024-01-11T23:09:44.701Z,2.24
2024-01-11T23:12:51.048Z,2.25
2024-01-11T23:15:57.443Z,2.30
2024-01-11T23:19:04.002Z,2.35
2024-01-11T23:22:10.319Z,2.37
2024-01-11T23:25:15.064Z,2.41
2024-01-11T23:28:22.911Z,2.41
2024-01-11T23:31:29.587Z,2.46
2024-01-11T23:34:35.978Z,2.49
2024-01-11T23:37:42.423Z,2.52
2024-01-11T23:40:48.751Z,2.57
2024-01-11T23:43:55.106Z,2.55
2024-01-11T23:46:59.734Z,2.54
2024-01-11T23:50:07.392Z,2.54
2024-01-11T23:53:13.983Z,2.52
2024-01-11T23:56:20.574Z,2.46
2024-01-11T23:59:27.078Z,2.42
